sensor_id;sensor_type;location;lat;lon;timestamp;temperature;humidity
23122;DHT22;11730;51.248;22.534;2023-09-19T00:00:44;18.60;1.00
23122;DHT22;11730;51.248;22.534;2023-09-19T00:10:40;18.90;1.00
23122;DHT22;11730;51.248;22.534;2023-09-19T00:13:10;18.50;1.00
23122;DHT22;11730;51.248;22.534;2023-09-19T00:15:47;18.50;1.00
23122;DHT22;11730;51.248;22.534;2023-09-19T00:18:18;18.70;1.00
23122;DHT22;11730;51.248;22.534;2023-09-19T00:20:49;18.50;1.00
23122;DHT22;11730;51.248;22.534;2023-09-19T00:23:19;18.60;1.00
23122;DHT22;11730;51.248;22.534;2023-09-19T00:25:47;18.50;1.00
23122;DHT22;11730;51.248;22.534;2023-09-19T00:28:14;18.60;1.00
23122;DHT22;11730;51.248;22.534;2023-09-19T00:30:43;18.50;1.00
23122;DHT22;11730;51.248;22.534;2023-09-19T00:33:10;18.60;1.00
23122;DHT22;11730;51.248;22.534;2023-09-19T00:38:15;18.50;1.00
23122;DHT22;11730;51.248;22.534;2023-09-19T00:40:47;18.50;1.00
23122;DHT22;11730;51.248;22.534;2023-09-19T00:43:14;18.20;1.00
23122;DHT22;11730;51.248;22.534;2023-09-19T00:45:47;18.40;1.00
23122;DHT22;11730;51.248;22.534;2023-09-19T00:48:16;18.30;1.00
23122;DHT22;11730;51.248;22.534;2023-09-19T00:50:45;18.40;1.00
23122;DHT22;11730;51.248;22.534;2023-09-19T00:53:18;18.20;1.00
23122;DHT22;11730;51.248;22.534;2023-09-19T00:55:47;18.50;1.00
23122;DHT22;11730;51.248;22.534;2023-09-19T00:58:16;18.10;1.00
23122;DHT22;11730;51.248;22.534;2023-09-19T01:00:44;18.10;1.00
23122;DHT22;11730;51.248;22.534;2023-09-19T01:03:11;18.50;1.00
23122;DHT22;11730;51.248;22.534;2023-09-19T01:08:08;18.00;1.00
23122;DHT22;11730;51.248;22.534;2023-09-19T01:10:36;18.20;1.00
23122;DHT22;11730;51.248;22.534;2023-09-19T01:13:25;18.60;1.00
23122;DHT22;11730;51.248;22.534;2023-09-19T01:16:14;18.10;1.00
23122;DHT22;11730;51.248;22.534;2023-09-19T01:27:21;18.00;1.00
23122;DHT22;11730;51.248;22.534;2023-09-19T01:29:52;18.80;1.00
23122;DHT22;11730;51.248;22.534;2023-09-19T01:32:21;18.00;1.00
23122;DHT22;11730;51.248;22.534;2023-09-19T01:34:55;18.10;1.00
23122;DHT22;11730;51.248;22.534;2023-09-19T01:37:24;18.10;1.00
23122;DHT22;11730;51.248;22.534;2023-09-19T01:40:03;18.20;1.00
23122;DHT22;11730;51.248;22.534;2023-09-19T01:48:24;18.10;1.00
23122;DHT22;11730;51.248;22.534;2023-09-19T01:51:00;17.80;1.00
23122;DHT22;11730;51.248;22.534;2023-09-19T01:56:09;17.80;1.00
23122;DHT22;11730;51.248;22.534;2023-09-19T01:58:43;18.10;1.00
23122;DHT22;11730;51.248;22.534;2023-09-19T02:01:16;18.00;1.00
23122;DHT22;11730;51.248;22.534;2023-09-19T02:03:47;18.00;1.00
23122;DHT22;11730;51.248;22.534;2023-09-19T02:06:18;18.00;1.00
23122;DHT22;11730;51.248;22.534;2023-09-19T02:08:45;18.00;1.00
23122;DHT22;11730;51.248;22.534;2023-09-19T02:13:42;18.00;1.00
23122;DHT22;11730;51.248;22.534;2023-09-19T02:18:39;17.90;1.00
23122;DHT22;11730;51.248;22.534;2023-09-19T02:21:06;18.40;1.00
23122;DHT22;11730;51.248;22.534;2023-09-19T02:28:35;18.00;1.00
23122;DHT22;11730;51.248;22.534;2023-09-19T02:35:59;17.70;1.00
23122;DHT22;11730;51.248;22.534;2023-09-19T02:38:27;17.70;1.00
23122;DHT22;11730;51.248;22.534;2023-09-19T02:40:56;18.10;1.00
23122;DHT22;11730;51.248;22.534;2023-09-19T02:43:23;18.00;1.00
23122;DHT22;11730;51.248;22.534;2023-09-19T02:45:51;18.10;1.00
23122;DHT22;11730;51.248;22.534;2023-09-19T02:48:20;18.10;1.00
23122;DHT22;11730;51.248;22.534;2023-09-19T02:50:49;18.00;1.00
23122;DHT22;11730;51.248;22.534;2023-09-19T02:53:16;17.80;1.00
23122;DHT22;11730;51.248;22.534;2023-09-19T02:55:43;17.90;1.00
23122;DHT22;11730;51.248;22.534;2023-09-19T02:58:10;17.70;1.00
23122;DHT22;11730;51.248;22.534;2023-09-19T03:00:38;18.00;1.00
23122;DHT22;11730;51.248;22.534;2023-09-19T03:03:05;17.80;1.00
23122;DHT22;11730;51.248;22.534;2023-09-19T03:05:33;17.90;1.00
23122;DHT22;11730;51.248;22.534;2023-09-19T03:12:57;18.10;1.00
23122;DHT22;11730;51.248;22.534;2023-09-19T03:15:24;18.10;1.00
23122;DHT22;11730;51.248;22.534;2023-09-19T03:17:51;17.80;1.00
23122;DHT22;11730;51.248;22.534;2023-09-19T03:20:20;18.50;1.00
23122;DHT22;11730;51.248;22.534;2023-09-19T03:25:15;18.70;1.00
23122;DHT22;11730;51.248;22.534;2023-09-19T03:27:44;18.10;1.00
23122;DHT22;11730;51.248;22.534;2023-09-19T03:30:11;17.70;1.00
23122;DHT22;11730;51.248;22.534;2023-09-19T03:32:47;17.80;1.00
23122;DHT22;11730;51.248;22.534;2023-09-19T03:35:18;17.80;1.00
23122;DHT22;11730;51.248;22.534;2023-09-19T03:42:40;17.80;1.00
23122;DHT22;11730;51.248;22.534;2023-09-19T03:45:10;17.70;1.00
23122;DHT22;11730;51.248;22.534;2023-09-19T03:47:42;17.50;1.00
23122;DHT22;11730;51.248;22.534;2023-09-19T03:52:44;17.80;1.00
23122;DHT22;11730;51.248;22.534;2023-09-19T04:00:07;17.60;1.00
23122;DHT22;11730;51.248;22.534;2023-09-19T04:02:39;17.80;1.00
23122;DHT22;11730;51.248;22.534;2023-09-19T04:10:02;17.90;1.00
23122;DHT22;11730;51.248;22.534;2023-09-19T04:12:30;18.00;1.00
23122;DHT22;11730;51.248;22.534;2023-09-19T04:17:24;18.00;1.00
23122;DHT22;11730;51.248;22.534;2023-09-19T04:19:51;17.90;1.00
23122;DHT22;11730;51.248;22.534;2023-09-19T04:22:18;18.00;1.00
23122;DHT22;11730;51.248;22.534;2023-09-19T04:24:45;17.80;1.00
23122;DHT22;11730;51.248;22.534;2023-09-19T04:34:36;17.80;1.00
23122;DHT22;11730;51.248;22.534;2023-09-19T04:39:32;17.60;1.00
23122;DHT22;11730;51.248;22.534;2023-09-19T04:46:55;17.90;1.00
23122;DHT22;11730;51.248;22.534;2023-09-19T04:51:50;18.60;1.00
23122;DHT22;11730;51.248;22.534;2023-09-19T05:04:07;17.90;1.00
23122;DHT22;11730;51.248;22.534;2023-09-19T05:11:32;18.30;1.00
23122;DHT22;11730;51.248;22.534;2023-09-19T05:19:01;18.30;1.00
23122;DHT22;11730;51.248;22.534;2023-09-19T05:21:29;18.80;1.00
23122;DHT22;11730;51.248;22.534;2023-09-19T05:26:25;18.30;1.00
23122;DHT22;11730;51.248;22.534;2023-09-19T05:28:52;18.90;1.00
23122;DHT22;11730;51.248;22.534;2023-09-19T05:31:19;18.20;1.00
23122;DHT22;11730;51.248;22.534;2023-09-19T05:33:47;18.50;1.00
23122;DHT22;11730;51.248;22.534;2023-09-19T05:38:44;18.80;1.00
23122;DHT22;11730;51.248;22.534;2023-09-19T05:46:09;18.70;1.00
23122;DHT22;11730;51.248;22.534;2023-09-19T05:48:36;19.00;1.00
23122;DHT22;11730;51.248;22.534;2023-09-19T05:51:03;19.10;1.00
23122;DHT22;11730;51.248;22.534;2023-09-19T05:53:30;18.80;1.00
23122;DHT22;11730;51.248;22.534;2023-09-19T06:03:24;19.30;1.00
23122;DHT22;11730;51.248;22.534;2023-09-19T06:05:51;19.60;1.00
23122;DHT22;11730;51.248;22.534;2023-09-19T06:08:19;19.90;1.00
23122;DHT22;11730;51.248;22.534;2023-09-19T06:18:11;21.00;99.90
23122;DHT22;11730;51.248;22.534;2023-09-19T06:20:42;21.30;99.90
23122;DHT22;11730;51.248;22.534;2023-09-19T06:23:12;21.70;99.90
23122;DHT22;11730;51.248;22.534;2023-09-19T06:25:39;21.30;99.90
23122;DHT22;11730;51.248;22.534;2023-09-19T06:30:38;22.40;99.90
23122;DHT22;11730;51.248;22.534;2023-09-19T06:35:42;22.50;99.90
23122;DHT22;11730;51.248;22.534;2023-09-19T06:38:11;21.60;99.90
23122;DHT22;11730;51.248;22.534;2023-09-19T06:43:10;21.30;99.90
23122;DHT22;11730;51.248;22.534;2023-09-19T06:50:33;21.00;99.90
23122;DHT22;11730;51.248;22.534;2023-09-19T06:53:01;20.90;99.90
23122;DHT22;11730;51.248;22.534;2023-09-19T06:55:28;20.70;99.90
23122;DHT22;11730;51.248;22.534;2023-09-19T06:57:59;20.70;99.90
23122;DHT22;11730;51.248;22.534;2023-09-19T07:00:26;20.50;99.90
23122;DHT22;11730;51.248;22.534;2023-09-19T07:02:58;20.60;99.90
23122;DHT22;11730;51.248;22.534;2023-09-19T07:05:28;20.20;99.90
23122;DHT22;11730;51.248;22.534;2023-09-19T07:10:23;20.60;99.90
23122;DHT22;11730;51.248;22.534;2023-09-19T07:13:01;20.30;99.90
23122;DHT22;11730;51.248;22.534;2023-09-19T07:15:31;20.40;99.90
23122;DHT22;11730;51.248;22.534;2023-09-19T07:18:00;20.20;99.90
23122;DHT22;11730;51.248;22.534;2023-09-19T07:20:27;20.50;99.90
23122;DHT22;11730;51.248;22.534;2023-09-19T07:25:29;20.30;99.90
23122;DHT22;11730;51.248;22.534;2023-09-19T07:27:57;20.10;99.90
23122;DHT22;11730;51.248;22.534;2023-09-19T07:30:28;20.30;99.90
23122;DHT22;11730;51.248;22.534;2023-09-19T07:35:23;20.10;99.90
23122;DHT22;11730;51.248;22.534;2023-09-19T07:40:19;20.00;99.90
23122;DHT22;11730;51.248;22.534;2023-09-19T07:45:16;20.20;99.90
23122;DHT22;11730;51.248;22.534;2023-09-19T07:47:48;20.40;99.90
23122;DHT22;11730;51.248;22.534;2023-09-19T07:50:19;19.90;99.90
23122;DHT22;11730;51.248;22.534;2023-09-19T07:52:47;19.80;99.90
23122;DHT22;11730;51.248;22.534;2023-09-19T07:55:14;19.60;99.90
23122;DHT22;11730;51.248;22.534;2023-09-19T07:57:46;19.70;99.90
23122;DHT22;11730;51.248;22.534;2023-09-19T08:00:14;19.70;99.90
23122;DHT22;11730;51.248;22.534;2023-09-19T08:02:42;19.80;99.90
23122;DHT22;11730;51.248;22.534;2023-09-19T08:05:10;19.70;99.90
23122;DHT22;11730;51.248;22.534;2023-09-19T08:07:39;19.80;99.90
23122;DHT22;11730;51.248;22.534;2023-09-19T08:10:07;19.80;99.90
23122;DHT22;11730;51.248;22.534;2023-09-19T08:15:03;19.60;99.90
23122;DHT22;11730;51.248;22.534;2023-09-19T08:17:34;19.40;99.90
23122;DHT22;11730;51.248;22.534;2023-09-19T08:20:02;19.60;99.90
23122;DHT22;11730;51.248;22.534;2023-09-19T08:22:31;19.60;99.90
23122;DHT22;11730;51.248;22.534;2023-09-19T08:27:28;19.90;99.90
23122;DHT22;11730;51.248;22.534;2023-09-19T08:29:55;19.60;99.90
23122;DHT22;11730;51.248;22.534;2023-09-19T08:44:44;19.90;99.90
23122;DHT22;11730;51.248;22.534;2023-09-19T08:47:14;19.60;99.90
23122;DHT22;11730;51.248;22.534;2023-09-19T08:50:04;19.00;1.00
23122;DHT22;11730;51.248;22.534;2023-09-19T08:52:41;19.70;99.90
23122;DHT22;11730;51.248;22.534;2023-09-19T08:55:13;19.40;99.90
23122;DHT22;11730;51.248;22.534;2023-09-19T08:57:49;19.40;99.90
23122;DHT22;11730;51.248;22.534;2023-09-19T09:00:16;20.30;99.90
23122;DHT22;11730;51.248;22.534;2023-09-19T09:02:48;19.20;1.00
23122;DHT22;11730;51.248;22.534;2023-09-19T09:10:19;19.20;1.00
23122;DHT22;11730;51.248;22.534;2023-09-19T09:12:53;19.10;1.00
23122;DHT22;11730;51.248;22.534;2023-09-19T09:15:23;18.90;1.00
23122;DHT22;11730;51.248;22.534;2023-09-19T09:17:51;18.70;1.00
23122;DHT22;11730;51.248;22.534;2023-09-19T09:20:20;18.30;1.00
23122;DHT22;11730;51.248;22.534;2023-09-19T09:22:54;18.30;1.00
23122;DHT22;11730;51.248;22.534;2023-09-19T09:25:22;18.70;1.00
23122;DHT22;11730;51.248;22.534;2023-09-19T09:28:02;18.80;1.00
23122;DHT22;11730;51.248;22.534;2023-09-19T09:30:33;18.70;1.00
23122;DHT22;11730;51.248;22.534;2023-09-19T09:33:11;18.50;1.00
23122;DHT22;11730;51.248;22.534;2023-09-19T09:35:58;18.50;1.00
23122;DHT22;11730;51.248;22.534;2023-09-19T09:38:44;19.00;1.00
23122;DHT22;11730;51.248;22.534;2023-09-19T09:41:12;19.40;1.00
23122;DHT22;11730;51.248;22.534;2023-09-19T09:43:42;19.60;1.00
23122;DHT22;11730;51.248;22.534;2023-09-19T09:46:19;19.20;1.00
23122;DHT22;11730;51.248;22.534;2023-09-19T09:52:03;19.10;1.00
23122;DHT22;11730;51.248;22.534;2023-09-19T09:55:05;19.30;1.00
23122;DHT22;11730;51.248;22.534;2023-09-19T10:00:03;19.50;1.00
23122;DHT22;11730;51.248;22.534;2023-09-19T10:02:39;19.20;1.00
23122;DHT22;11730;51.248;22.534;2023-09-19T10:05:16;19.30;1.00
23122;DHT22;11730;51.248;22.534;2023-09-19T10:10:32;19.20;1.00
23122;DHT22;11730;51.248;22.534;2023-09-19T10:13:09;19.40;1.00
23122;DHT22;11730;51.248;22.534;2023-09-19T10:15:42;19.20;1.00
23122;DHT22;11730;51.248;22.534;2023-09-19T10:18:22;19.70;1.00
23122;DHT22;11730;51.248;22.534;2023-09-19T10:20:51;19.30;1.00
23122;DHT22;11730;51.248;22.534;2023-09-19T10:23:20;19.40;1.00
23122;DHT22;11730;51.248;22.534;2023-09-19T10:25:49;19.50;1.00
23122;DHT22;11730;51.248;22.534;2023-09-19T10:28:18;19.60;1.00
23122;DHT22;11730;51.248;22.534;2023-09-19T10:30:51;19.50;1.00
23122;DHT22;11730;51.248;22.534;2023-09-19T10:33:21;19.60;1.00
23122;DHT22;11730;51.248;22.534;2023-09-19T10:35:50;19.50;1.00
23122;DHT22;11730;51.248;22.534;2023-09-19T10:38:27;19.60;1.00
23122;DHT22;11730;51.248;22.534;2023-09-19T10:40:56;19.50;1.00
23122;DHT22;11730;51.248;22.534;2023-09-19T10:43:32;19.40;1.00
23122;DHT22;11730;51.248;22.534;2023-09-19T10:46:06;19.50;1.00
23122;DHT22;11730;51.248;22.534;2023-09-19T10:51:11;19.00;1.00
23122;DHT22;11730;51.248;22.534;2023-09-19T10:53:53;19.30;1.00
23122;DHT22;11730;51.248;22.534;2023-09-19T10:56:37;19.30;1.00
23122;DHT22;11730;51.248;22.534;2023-09-19T10:59:14;19.60;1.00
23122;DHT22;11730;51.248;22.534;2023-09-19T11:01:46;19.30;1.00
23122;DHT22;11730;51.248;22.534;2023-09-19T11:04:36;19.60;1.00
23122;DHT22;11730;51.248;22.534;2023-09-19T11:07:07;19.20;1.00
23122;DHT22;11730;51.248;22.534;2023-09-19T11:09:54;19.20;1.00
23122;DHT22;11730;51.248;22.534;2023-09-19T11:14:59;19.10;1.00
23122;DHT22;11730;51.248;22.534;2023-09-19T11:17:39;19.40;1.00
23122;DHT22;11730;51.248;22.534;2023-09-19T11:30:36;18.60;1.00
23122;DHT22;11730;51.248;22.534;2023-09-19T11:33:28;18.70;1.00
23122;DHT22;11730;51.248;22.534;2023-09-19T11:36:14;19.00;1.00
23122;DHT22;11730;51.248;22.534;2023-09-19T11:43:52;18.20;1.00
23122;DHT22;11730;51.248;22.534;2023-09-19T11:46:24;18.20;1.00
23122;DHT22;11730;51.248;22.534;2023-09-19T11:48:51;18.00;1.00
23122;DHT22;11730;51.248;22.534;2023-09-19T11:51:27;17.90;1.00
23122;DHT22;11730;51.248;22.534;2023-09-19T11:53:57;17.70;1.00
23122;DHT22;11730;51.248;22.534;2023-09-19T11:56:27;17.30;1.00
23122;DHT22;11730;51.248;22.534;2023-09-19T11:58:56;17.10;1.00
23122;DHT22;11730;51.248;22.534;2023-09-19T12:01:27;17.40;1.00
23122;DHT22;11730;51.248;22.534;2023-09-19T12:03:58;17.50;1.00
23122;DHT22;11730;51.248;22.534;2023-09-19T12:06:27;17.30;1.00
23122;DHT22;11730;51.248;22.534;2023-09-19T12:11:31;17.30;1.00
23122;DHT22;11730;51.248;22.534;2023-09-19T12:14:02;17.30;1.00
23122;DHT22;11730;51.248;22.534;2023-09-19T12:19:18;17.20;1.00
23122;DHT22;11730;51.248;22.534;2023-09-19T12:22:04;17.30;1.00
23122;DHT22;11730;51.248;22.534;2023-09-19T12:24:32;16.80;1.00
23122;DHT22;11730;51.248;22.534;2023-09-19T12:27:06;17.00;1.00
23122;DHT22;11730;51.248;22.534;2023-09-19T12:29:45;17.00;1.00
23122;DHT22;11730;51.248;22.534;2023-09-19T12:32:12;16.90;1.00
23122;DHT22;11730;51.248;22.534;2023-09-19T12:34:40;17.20;1.00
23122;DHT22;11730;51.248;22.534;2023-09-19T12:37:12;17.10;1.00
23122;DHT22;11730;51.248;22.534;2023-09-19T12:39:41;18.10;1.00
23122;DHT22;11730;51.248;22.534;2023-09-19T12:42:10;17.00;1.00
23122;DHT22;11730;51.248;22.534;2023-09-19T12:44:38;16.90;1.00
23122;DHT22;11730;51.248;22.534;2023-09-19T12:47:12;17.20;1.00
23122;DHT22;11730;51.248;22.534;2023-09-19T12:50:15;17.60;1.00
23122;DHT22;11730;51.248;22.534;2023-09-19T12:52:49;17.20;1.00
23122;DHT22;11730;51.248;22.534;2023-09-19T12:55:27;17.20;1.00
23122;DHT22;11730;51.248;22.534;2023-09-19T13:05:55;17.10;1.00
23122;DHT22;11730;51.248;22.534;2023-09-19T13:08:31;17.10;1.00
23122;DHT22;11730;51.248;22.534;2023-09-19T13:11:20;17.30;1.00
23122;DHT22;11730;51.248;22.534;2023-09-19T13:14:12;17.20;1.00
23122;DHT22;11730;51.248;22.534;2023-09-19T13:19:34;17.30;1.00
23122;DHT22;11730;51.248;22.534;2023-09-19T13:24:30;17.20;1.00
23122;DHT22;11730;51.248;22.534;2023-09-19T13:26:57;16.90;1.00
23122;DHT22;11730;51.248;22.534;2023-09-19T13:29:24;17.70;1.00
23122;DHT22;11730;51.248;22.534;2023-09-19T13:31:52;17.10;1.00
23122;DHT22;11730;51.248;22.534;2023-09-19T13:34:20;17.00;1.00
23122;DHT22;11730;51.248;22.534;2023-09-19T13:39:16;17.00;1.00
23122;DHT22;11730;51.248;22.534;2023-09-19T13:41:47;16.70;1.00
23122;DHT22;11730;51.248;22.534;2023-09-19T13:46:44;16.70;1.00
23122;DHT22;11730;51.248;22.534;2023-09-19T13:49:14;17.00;1.00
23122;DHT22;11730;51.248;22.534;2023-09-19T13:56:39;16.90;1.00
23122;DHT22;11730;51.248;22.534;2023-09-19T13:59:07;17.10;1.00
23122;DHT22;11730;51.248;22.534;2023-09-19T14:01:34;16.90;7.90
23122;DHT22;11730;51.248;22.534;2023-09-19T14:06:29;16.80;16.00
23122;DHT22;11730;51.248;22.534;2023-09-19T14:08:56;17.50;17.20
23122;DHT22;11730;51.248;22.534;2023-09-19T14:13:50;17.40;15.70
23122;DHT22;11730;51.248;22.534;2023-09-19T14:18:51;17.50;19.00
23122;DHT22;11730;51.248;22.534;2023-09-19T14:21:19;17.30;19.50
23122;DHT22;11730;51.248;22.534;2023-09-19T14:26:13;17.90;19.90
23122;DHT22;11730;51.248;22.534;2023-09-19T14:31:09;17.00;17.80
23122;DHT22;11730;51.248;22.534;2023-09-19T14:33:37;17.10;18.70
23122;DHT22;11730;51.248;22.534;2023-09-19T14:36:06;16.70;19.80
23122;DHT22;11730;51.248;22.534;2023-09-19T14:38:36;17.00;19.20
23122;DHT22;11730;51.248;22.534;2023-09-19T14:41:05;16.90;23.10
23122;DHT22;11730;51.248;22.534;2023-09-19T14:46:06;16.80;24.50
23122;DHT22;11730;51.248;22.534;2023-09-19T14:51:07;16.90;25.10
23122;DHT22;11730;51.248;22.534;2023-09-19T14:56:07;16.90;22.40
23122;DHT22;11730;51.248;22.534;2023-09-19T14:58:35;17.00;26.20
23122;DHT22;11730;51.248;22.534;2023-09-19T15:01:06;18.20;26.20
23122;DHT22;11730;51.248;22.534;2023-09-19T15:06:03;17.00;25.10
23122;DHT22;11730;51.248;22.534;2023-09-19T15:08:36;17.10;28.40
23122;DHT22;11730;51.248;22.534;2023-09-19T15:11:08;17.10;26.60
23122;DHT22;11730;51.248;22.534;2023-09-19T15:16:06;16.90;30.00
23122;DHT22;11730;51.248;22.534;2023-09-19T15:18:38;17.10;30.00
23122;DHT22;11730;51.248;22.534;2023-09-19T15:21:11;16.90;30.50
23122;DHT22;11730;51.248;22.534;2023-09-19T15:23:39;17.20;29.30
23122;DHT22;11730;51.248;22.534;2023-09-19T15:26:09;16.60;31.20
23122;DHT22;11730;51.248;22.534;2023-09-19T15:28:38;17.40;29.60
23122;DHT22;11730;51.248;22.534;2023-09-19T15:31:10;17.40;29.60
23122;DHT22;11730;51.248;22.534;2023-09-19T15:33:38;16.80;29.10
23122;DHT22;11730;51.248;22.534;2023-09-19T15:36:10;17.40;30.30
23122;DHT22;11730;51.248;22.534;2023-09-19T15:39:00;17.20;29.50
23122;DHT22;11730;51.248;22.534;2023-09-19T15:41:29;17.20;33.70
23122;DHT22;11730;51.248;22.534;2023-09-19T15:43:57;17.20;33.80
23122;DHT22;11730;51.248;22.534;2023-09-19T15:53:50;16.90;33.30
23122;DHT22;11730;51.248;22.534;2023-09-19T15:56:18;17.20;29.90
23122;DHT22;11730;51.248;22.534;2023-09-19T15:58:45;17.40;31.50
23122;DHT22;11730;51.248;22.534;2023-09-19T16:03:48;17.10;30.50
23122;DHT22;11730;51.248;22.534;2023-09-19T16:06:18;17.40;29.60
23122;DHT22;11730;51.248;22.534;2023-09-19T16:08:47;16.60;25.80
23122;DHT22;11730;51.248;22.534;2023-09-19T16:11:15;17.20;23.30
23122;DHT22;11730;51.248;22.534;2023-09-19T16:18:55;16.90;22.50
23122;DHT22;11730;51.248;22.534;2023-09-19T16:21:25;17.20;25.50
23122;DHT22;11730;51.248;22.534;2023-09-19T16:23:57;16.80;24.80
23122;DHT22;11730;51.248;22.534;2023-09-19T16:26:25;16.90;24.60
23122;DHT22;11730;51.248;22.534;2023-09-19T16:28:54;17.10;22.00
23122;DHT22;11730;51.248;22.534;2023-09-19T16:33:50;17.10;24.90
23122;DHT22;11730;51.248;22.534;2023-09-19T16:38:46;17.10;23.10
23122;DHT22;11730;51.248;22.534;2023-09-19T16:43:43;17.30;24.60
23122;DHT22;11730;51.248;22.534;2023-09-19T16:46:11;17.00;22.50
23122;DHT22;11730;51.248;22.534;2023-09-19T16:48:40;17.00;22.30
23122;DHT22;11730;51.248;22.534;2023-09-19T16:51:27;16.80;25.10
23122;DHT22;11730;51.248;22.534;2023-09-19T16:58:50;16.90;27.10
23122;DHT22;11730;51.248;22.534;2023-09-19T17:01:19;16.70;27.80
23122;DHT22;11730;51.248;22.534;2023-09-19T17:03:48;16.80;25.90
23122;DHT22;11730;51.248;22.534;2023-09-19T17:06:17;17.20;28.00
23122;DHT22;11730;51.248;22.534;2023-09-19T17:08:45;17.10;28.40
23122;DHT22;11730;51.248;22.534;2023-09-19T17:11:15;17.00;28.80
23122;DHT22;11730;51.248;22.534;2023-09-19T17:13:45;17.10;29.20
23122;DHT22;11730;51.248;22.534;2023-09-19T17:16:17;17.00;28.50
23122;DHT22;11730;51.248;22.534;2023-09-19T17:23:47;17.40;29.00
23122;DHT22;11730;51.248;22.534;2023-09-19T17:28:52;17.10;29.90
23122;DHT22;11730;51.248;22.534;2023-09-19T17:31:23;17.40;30.00
23122;DHT22;11730;51.248;22.534;2023-09-19T17:33:52;17.10;28.20
23122;DHT22;11730;51.248;22.534;2023-09-19T17:36:21;17.10;28.40
23122;DHT22;11730;51.248;22.534;2023-09-19T17:38:55;16.90;29.40
23122;DHT22;11730;51.248;22.534;2023-09-19T17:43:55;17.10;29.20
23122;DHT22;11730;51.248;22.534;2023-09-19T17:46:23;17.10;28.90
23122;DHT22;11730;51.248;22.534;2023-09-19T17:48:56;17.10;29.00
23122;DHT22;11730;51.248;22.534;2023-09-19T17:51:23;17.30;32.00
23122;DHT22;11730;51.248;22.534;2023-09-19T17:58:47;17.70;32.40
23122;DHT22;11730;51.248;22.534;2023-09-19T18:01:31;16.90;32.50
23122;DHT22;11730;51.248;22.534;2023-09-19T18:03:59;17.10;33.00
23122;DHT22;11730;51.248;22.534;2023-09-19T18:06:29;17.00;32.20
23122;DHT22;11730;51.248;22.534;2023-09-19T18:08:59;16.90;32.30
23122;DHT22;11730;51.248;22.534;2023-09-19T18:11:26;16.90;33.20
23122;DHT22;11730;51.248;22.534;2023-09-19T18:13:56;16.90;33.50
23122;DHT22;11730;51.248;22.534;2023-09-19T18:16:25;17.10;34.70
23122;DHT22;11730;51.248;22.534;2023-09-19T18:18:54;17.10;34.70
23122;DHT22;11730;51.248;22.534;2023-09-19T18:23:54;17.20;32.70
23122;DHT22;11730;51.248;22.534;2023-09-19T18:31:17;17.70;33.70
23122;DHT22;11730;51.248;22.534;2023-09-19T18:33:45;17.90;35.60
23122;DHT22;11730;51.248;22.534;2023-09-19T18:36:15;17.20;35.80
23122;DHT22;11730;51.248;22.534;2023-09-19T18:38:42;17.20;33.00
23122;DHT22;11730;51.248;22.534;2023-09-19T18:41:13;17.10;32.90
23122;DHT22;11730;51.248;22.534;2023-09-19T18:46:11;17.10;34.00
23122;DHT22;11730;51.248;22.534;2023-09-19T18:48:44;17.10;33.80
23122;DHT22;11730;51.248;22.534;2023-09-19T18:51:13;17.20;35.00
23122;DHT22;11730;51.248;22.534;2023-09-19T18:53:42;17.10;33.60
23122;DHT22;11730;51.248;22.534;2023-09-19T18:56:22;17.20;34.50
23122;DHT22;11730;51.248;22.534;2023-09-19T18:58:51;17.10;34.60
23122;DHT22;11730;51.248;22.534;2023-09-19T19:06:14;17.10;33.00
23122;DHT22;11730;51.248;22.534;2023-09-19T19:08:44;17.10;36.00
23122;DHT22;11730;51.248;22.534;2023-09-19T19:11:13;17.10;32.40
23122;DHT22;11730;51.248;22.534;2023-09-19T19:13:45;16.60;35.40
23122;DHT22;11730;51.248;22.534;2023-09-19T19:18:43;17.20;35.80
23122;DHT22;11730;51.248;22.534;2023-09-19T19:21:12;15.90;32.10
23122;DHT22;11730;51.248;22.534;2023-09-19T19:28:38;17.00;31.90
23122;DHT22;11730;51.248;22.534;2023-09-19T19:36:07;16.50;31.30
23122;DHT22;11730;51.248;22.534;2023-09-19T19:38:36;16.90;34.50
23122;DHT22;11730;51.248;22.534;2023-09-19T19:41:07;17.10;34.30
23122;DHT22;11730;51.248;22.534;2023-09-19T19:43:35;16.70;31.80
23122;DHT22;11730;51.248;22.534;2023-09-19T19:46:03;17.70;34.80
23122;DHT22;11730;51.248;22.534;2023-09-19T19:48:31;16.80;34.30
23122;DHT22;11730;51.248;22.534;2023-09-19T19:51:05;17.10;33.00
23122;DHT22;11730;51.248;22.534;2023-09-19T19:53:37;16.90;34.40
23122;DHT22;11730;51.248;22.534;2023-09-19T19:56:07;16.80;33.60
23122;DHT22;11730;51.248;22.534;2023-09-19T19:58:34;17.50;31.20
23122;DHT22;11730;51.248;22.534;2023-09-19T20:03:34;17.10;32.20
23122;DHT22;11730;51.248;22.534;2023-09-19T20:06:03;16.90;29.50
23122;DHT22;11730;51.248;22.534;2023-09-19T20:11:02;16.90;32.80
23122;DHT22;11730;51.248;22.534;2023-09-19T20:13:30;16.60;31.30
23122;DHT22;11730;51.248;22.534;2023-09-19T20:15:58;16.90;29.20
23122;DHT22;11730;51.248;22.534;2023-09-19T20:18:26;16.70;31.00
23122;DHT22;11730;51.248;22.534;2023-09-19T20:25:49;17.10;30.40
23122;DHT22;11730;51.248;22.534;2023-09-19T20:28:17;16.70;30.80
23122;DHT22;11730;51.248;22.534;2023-09-19T20:30:47;16.60;30.30
23122;DHT22;11730;51.248;22.534;2023-09-19T20:35:43;16.80;28.50
23122;DHT22;11730;51.248;22.534;2023-09-19T20:38:10;16.70;29.60
23122;DHT22;11730;51.248;22.534;2023-09-19T20:40:41;16.80;27.20
23122;DHT22;11730;51.248;22.534;2023-09-19T20:43:10;16.80;29.20
23122;DHT22;11730;51.248;22.534;2023-09-19T20:45:37;16.80;29.30
23122;DHT22;11730;51.248;22.534;2023-09-19T20:48:08;16.50;29.00
23122;DHT22;11730;51.248;22.534;2023-09-19T20:50:37;16.60;28.30
23122;DHT22;11730;51.248;22.534;2023-09-19T21:00:34;16.50;27.40
23122;DHT22;11730;51.248;22.534;2023-09-19T21:03:01;17.50;27.60
23122;DHT22;11730;51.248;22.534;2023-09-19T21:05:29;16.60;26.10
23122;DHT22;11730;51.248;22.534;2023-09-19T21:12:50;16.50;24.80
23122;DHT22;11730;51.248;22.534;2023-09-19T21:17:45;16.60;24.60
23122;DHT22;11730;51.248;22.534;2023-09-19T21:20:13;16.50;24.30
23122;DHT22;11730;51.248;22.534;2023-09-19T21:22:40;16.50;24.50
23122;DHT22;11730;51.248;22.534;2023-09-19T21:25:07;16.60;23.80
23122;DHT22;11730;51.248;22.534;2023-09-19T21:30:06;16.50;24.30
23122;DHT22;11730;51.248;22.534;2023-09-19T21:35:03;17.50;21.60
23122;DHT22;11730;51.248;22.534;2023-09-19T21:37:31;16.40;21.60
23122;DHT22;11730;51.248;22.534;2023-09-19T21:47:20;16.60;21.80
23122;DHT22;11730;51.248;22.534;2023-09-19T21:57:10;16.30;19.20
23122;DHT22;11730;51.248;22.534;2023-09-19T21:59:37;17.10;19.20
23122;DHT22;11730;51.248;22.534;2023-09-19T22:04:34;16.70;17.60